Donnybrook, North Dakota
Current Conditions -  °F | °C
As of 8:58 PM on Monday 26 Jan 2015 (Local Time) from KMIB Reporting Station
Clear Clear  
Wind Chill: 22°   Ceiling: Unl
Heat Index: 29°   Visibility: 10mi
Dew Point: 29°   Wind: 8mph
Humidity: 100%   Direction: 170°S
Pressure: 29.92"   Gusts: NA
Location:  48.51°N, 101.89°W
Report Text: KMIB 270258Z AUTO 17007KT 10SM CLR M01/M01 A2992 RMK AO2 SLP157 T10141014 58001 $
Loading
Personal Weather Stations






























Interactive Weather Map New forecast layout! Learn more

10-Day Weather Forecast

Advertisements
Track Severe Weather on mobile